Time;durP1;ratioP1;P1;durP2;ratioP2;P2;SDS_P1;SDS_P2;PMS_P1;PMS_P2;Temp;Humidity;BMP_temperature;BMP_pressure;BME280_temperature;BME280_humidity;BME280_pressure;Samples;Min_cycle;Max_cycle;Signal;HPM_P1;HPM_P2
2022/01/29 00:00:49;;;;;;;49.40;34.60;;;;;;;4.39;100.00;102904.88;5089440;28;20028;-64
2022/01/29 00:03:15;;;;;;;52.53;35.90;;;;;;;4.40;100.00;102905.78;5089362;28;20390;-64
2022/01/29 00:05:40;;;;;;;52.10;34.90;;;;;;;4.41;100.00;102907.56;5089002;28;20034;-65
2022/01/29 00:08:05;;;;;;;52.23;34.90;;;;;;;4.42;100.00;102909.41;5089673;28;20103;-64
2022/01/29 00:10:31;;;;;;;48.07;33.57;;;;;;;4.41;100.00;102895.66;5089117;28;20027;-64
2022/01/29 00:12:57;;;;;;;55.30;34.30;;;;;;;4.44;100.00;102889.91;5089200;28;20379;-64
2022/01/29 00:15:23;;;;;;;50.47;33.43;;;;;;;4.44;100.00;102882.19;5091646;28;20028;-64
2022/01/29 00:17:48;;;;;;;52.43;34.93;;;;;;;4.45;100.00;102884.00;5092904;28;20182;-64
2022/01/29 00:20:13;;;;;;;51.50;34.73;;;;;;;4.46;100.00;102888.38;5092931;28;20019;-64
2022/01/29 00:22:39;;;;;;;55.67;35.43;;;;;;;4.47;100.00;102887.59;5092932;28;20027;-64
2022/01/29 00:25:05;;;;;;;54.93;35.17;;;;;;;4.49;100.00;102875.81;5092548;28;20024;-65
2022/01/29 00:27:34;;;;;;;56.10;38.07;;;;;;;4.49;100.00;102882.59;5092656;28;20076;-64
2022/01/29 00:30:05;;;;;;;51.10;35.20;;;;;;;4.50;100.00;102882.72;5092819;28;20020;-64
2022/01/29 00:32:30;;;;;;;;;;;;;;;4.53;100.00;102883.00;5093436;28;20103;-64
2022/01/29 00:34:56;;;;;;;51.63;34.50;;;;;;;4.54;100.00;102868.50;5105930;28;20604;-65
2022/01/29 00:37:21;;;;;;;51.70;34.70;;;;;;;4.54;100.00;102868.50;5112730;28;20019;-64
2022/01/29 00:39:46;;;;;;;56.10;35.20;;;;;;;4.53;100.00;102857.31;5112660;28;20080;-64
2022/01/29 00:42:13;;;;;;;48.53;34.10;;;;;;;4.55;100.00;102863.50;5112842;28;20102;-64
2022/01/29 00:44:38;;;;;;;50.03;35.27;;;;;;;4.56;100.00;102859.28;5112650;28;20027;-64
2022/01/29 00:47:04;;;;;;;49.93;34.57;;;;;;;4.55;100.00;102860.94;5112554;28;20422;-64
2022/01/29 00:49:29;;;;;;;48.10;34.13;;;;;;;4.59;100.00;102861.22;5112544;28;20030;-64
2022/01/29 00:51:54;;;;;;;52.77;34.47;;;;;;;4.58;100.00;102855.19;5113016;28;20459;-64
2022/01/29 00:54:20;;;;;;;56.97;35.80;;;;;;;4.57;100.00;102856.84;5102954;28;20495;-64
2022/01/29 00:56:45;;;;;;;49.17;35.07;;;;;;;4.59;100.00;102850.97;5092402;28;20031;-64
2022/01/29 00:59:11;;;;;;;51.53;35.87;;;;;;;4.59;100.00;102846.69;5091900;28;20528;-65
2022/01/29 01:01:36;;;;;;;52.23;35.73;;;;;;;4.60;100.00;102850.19;5091850;28;20107;-65
2022/01/29 01:04:02;;;;;;;50.20;34.20;;;;;;;4.62;100.00;102838.38;5092109;28;20030;-64
2022/01/29 01:06:27;;;;;;;48.80;33.20;;;;;;;4.62;100.00;102830.69;5092064;28;20262;-64
2022/01/29 01:08:52;;;;;;;48.63;32.57;;;;;;;4.63;100.00;102825.66;5091928;28;20047;-64
2022/01/29 01:11:18;;;;;;;52.10;34.30;;;;;;;4.65;100.00;102816.44;5091662;28;20030;-64
2022/01/29 01:13:43;;;;;;;50.07;34.83;;;;;;;4.63;100.00;102817.97;5091929;28;20123;-64
2022/01/29 01:16:08;;;;;;;52.67;34.53;;;;;;;4.64;100.00;102799.19;5091890;28;20475;-64
2022/01/29 01:18:33;;;;;;;46.00;34.47;;;;;;;4.66;100.00;102804.47;5092773;28;20058;-64
2022/01/29 01:20:59;;;;;;;49.23;34.57;;;;;;;4.66;100.00;102791.63;5091944;28;20059;-64
2022/01/29 01:23:24;;;;;;;57.27;35.53;;;;;;;4.67;100.00;102790.88;5091627;28;20046;-64
2022/01/29 01:25:49;;;;;;;54.60;36.13;;;;;;;4.66;100.00;102783.94;5091116;28;20082;-64
2022/01/29 01:28:15;;;;;;;50.13;34.70;;;;;;;4.66;100.00;102776.22;5094071;28;20028;-64
2022/01/29 01:30:41;;;;;;;50.30;35.80;;;;;;;4.68;100.00;102772.13;5073118;28;20032;-64
2022/01/29 01:33:07;;;;;;;50.67;36.90;;;;;;;4.66;100.00;102763.38;5091262;28;20047;-64
2022/01/29 01:35:47;;;;;;;52.30;36.13;;;;;;;4.65;100.00;102769.28;5072889;28;20040;-64
2022/01/29 01:38:18;;;;;;;52.22;35.17;;;;;;;4.66;100.00;102760.81;5091399;28;20097;-64
2022/01/29 01:40:48;;;;;;;48.17;34.65;;;;;;;4.64;100.00;102762.38;5091145;28;20020;-64
2022/01/29 01:43:14;;;;;;;55.23;36.23;;;;;;;4.63;100.00;102747.72;5091048;28;20023;-64
2022/01/29 01:45:39;;;;;;;51.87;36.67;;;;;;;4.63;100.00;102752.84;5091158;28;20024;-65
2022/01/29 01:48:06;;;;;;;47.30;35.67;;;;;;;4.62;100.00;102763.91;5072713;28;20568;-64
2022/01/29 01:50:33;;;;;;;48.37;35.30;;;;;;;4.60;100.00;102758.63;5090959;28;20024;-64
2022/01/29 01:52:59;;;;;;;50.03;36.10;;;;;;;4.59;100.00;102748.22;5090995;28;20113;-64
2022/01/29 01:55:24;;;;;;;48.97;36.40;;;;;;;4.58;100.00;102737.06;5091013;28;20626;-65
2022/01/29 01:57:50;;;;;;;52.27;35.53;;;;;;;4.57;100.00;102748.97;5090640;28;20367;-64
2022/01/29 02:00:16;;;;;;;50.87;36.63;;;;;;;4.54;100.00;102734.97;5090793;28;20020;-64
2022/01/29 02:02:41;;;;;;;55.67;36.37;;;;;;;4.54;100.00;102735.88;5090785;28;20653;-64
2022/01/29 02:05:08;;;;;;;52.83;37.33;;;;;;;4.49;100.00;102726.88;5090833;28;20522;-64
2022/01/29 02:07:35;;;;;;;56.73;37.33;;;;;;;4.49;100.00;102726.88;5090527;28;20020;-64
2022/01/29 02:10:00;;;;;;;55.27;37.30;;;;;;;4.49;100.00;102726.88;5090330;28;20035;-64
2022/01/29 02:12:29;;;;;;;49.53;35.60;;;;;;;4.47;100.00;102723.28;5090506;28;20028;-64
2022/01/29 02:14:56;;;;;;;53.67;37.63;;;;;;;4.46;100.00;102711.22;5072389;28;20066;-64
2022/01/29 02:17:22;;;;;;;51.60;36.53;;;;;;;4.43;100.00;102695.50;5090282;28;20063;-64
2022/01/29 02:19:47;;;;;;;50.67;35.57;;;;;;;4.44;100.00;102702.47;5106363;28;20108;-65
2022/01/29 02:22:12;;;;;;;54.97;36.90;;;;;;;4.45;100.00;102711.97;5110753;28;20467;-64
2022/01/29 02:24:38;;;;;;;50.40;35.40;;;;;;;4.45;100.00;102704.25;5110894;28;20102;-64
2022/01/29 02:27:03;;;;;;;48.57;34.00;;;;;;;4.44;100.00;102710.19;5110458;28;20055;-65
2022/01/29 02:29:33;;;;;;;48.20;35.43;;;;;;;4.45;100.00;102699.13;5110603;28;20030;-65
2022/01/29 02:31:59;;;;;;;49.53;34.40;;;;;;;4.44;100.00;102699.91;5110670;28;20031;-64
2022/01/29 02:34:24;;;;;;;51.33;35.20;;;;;;;4.44;100.00;102702.47;5110617;28;20027;-64
2022/01/29 02:36:53;;;;;;;49.43;33.83;;;;;;;4.44;100.00;102699.91;5090913;28;20051;-64
2022/01/29 02:39:19;;;;;;;50.67;34.27;;;;;;;4.45;100.00;102699.13;5090278;28;20105;-64
2022/01/29 02:41:45;;;;;;;49.45;35.65;;;;;;;4.44;100.00;102695.66;5089892;28;20055;-64
2022/01/29 02:44:18;;;;;;;52.73;33.63;;;;;;;4.44;100.00;102681.94;5089957;28;20391;-64
2022/01/29 02:49:17;;;;;;;49.35;34.63;;;;;;;4.48;100.00;102694.25;5077304;28;20025;-64
2022/01/29 02:51:45;;;;;;;50.20;34.70;;;;;;;4.48;100.00;102690.81;5069556;28;20024;-65
2022/01/29 02:54:10;;;;;;;51.67;35.60;;;;;;;4.51;100.00;102684.25;5069826;28;20037;-65
2022/01/29 02:56:36;;;;;;;46.63;35.00;;;;;;;4.53;100.00;102669.00;5069354;28;20376;-64
2022/01/29 02:59:01;;;;;;;50.80;34.00;;;;;;;4.52;100.00;102667.16;5069393;28;20028;-65
2022/01/29 03:01:26;;;;;;;53.53;36.30;;;;;;;4.52;100.00;102670.66;5070627;28;20036;-65
2022/01/29 03:03:52;;;;;;;50.03;34.33;;;;;;;4.54;100.00;102678.47;5069832;28;20372;-64
2022/01/29 03:06:17;;;;;;;52.10;35.23;;;;;;;4.54;100.00;102674.25;5069589;28;20060;-64
2022/01/29 03:08:42;;;;;;;54.00;36.17;;;;;;;4.54;100.00;102663.97;5069591;28;20031;-64
2022/01/29 03:11:07;;;;;;;49.83;33.57;;;;;;;4.56;100.00;102677.84;5069798;28;20036;-64
2022/01/29 03:13:33;;;;;;;51.73;34.50;;;;;;;4.57;100.00;102664.22;5069417;28;20024;-65
2022/01/29 03:15:58;;;;;;;53.33;35.20;;;;;;;4.56;100.00;102652.19;5069584;28;20341;-64
2022/01/29 03:18:23;;;;;;;50.93;35.87;;;;;;;4.59;100.00;102651.53;5069447;28;20039;-64
2022/01/29 03:20:49;;;;;;;51.50;35.13;;;;;;;4.59;100.00;102638.69;5069335;28;20492;-64
2022/01/29 03:23:14;;;;;;;52.13;33.83;;;;;;;4.57;100.00;102641.13;5069767;28;20420;-64
2022/01/29 03:25:40;;;;;;;53.70;33.80;;;;;;;4.60;100.00;102649.88;5069359;28;20508;-65
2022/01/29 03:28:05;;;;;;;52.77;36.33;;;;;;;4.59;100.00;102636.13;5069291;28;20325;-65
2022/01/29 03:30:31;;;;;;;56.40;36.53;;;;;;;4.61;100.00;102634.56;5069260;28;20055;-65
2022/01/29 03:32:56;;;;;;;54.20;35.92;;;;;;;4.60;100.00;102631.88;5069872;28;20487;-65
2022/01/29 03:35:22;;;;;;;54.23;35.13;;;;;;;4.60;100.00;102632.78;5075050;28;20466;-64
2022/01/29 03:37:47;;;;;;;54.92;35.95;;;;;;;4.61;100.00;102623.41;5071273;28;20067;-64
2022/01/29 03:40:12;;;;;;;59.93;35.63;;;;;;;4.63;100.00;102627.00;5071054;28;20411;-64
2022/01/29 03:42:44;;;;;;;54.75;36.08;;;;;;;4.64;100.00;102628.81;5089355;28;20063;-65
2022/01/29 03:45:10;;;;;;;54.40;35.60;;;;;;;4.64;100.00;102623.69;5071435;28;20646;-64
2022/01/29 03:47:35;;;;;;;58.13;35.92;;;;;;;4.64;100.00;102608.28;5089434;28;20017;-65
2022/01/29 03:50:01;;;;;;;58.37;36.13;;;;;;;4.62;100.00;102615.84;5112718;28;20024;-64
2022/01/29 03:52:26;;;;;;;56.77;35.97;;;;;;;4.64;100.00;102618.53;5113739;28;20031;-64
2022/01/29 03:54:52;;;;;;;54.63;35.73;;;;;;;4.64;100.00;102618.53;5113791;28;20045;-64
2022/01/29 03:57:17;;;;;;;61.83;35.63;;;;;;;4.63;100.00;102611.59;5113825;28;20379;-64
2022/01/29 03:59:42;;;;;;;54.95;34.92;;;;;;;4.63;100.00;102609.94;5095060;28;20126;-64
2022/01/29 04:02:08;;;;;;;52.03;33.77;;;;;;;4.65;100.00;102607.50;5113597;28;20064;-64
2022/01/29 04:04:33;;;;;;;54.73;34.80;;;;;;;4.64;100.00;102611.72;5095266;28;20023;-64
2022/01/29 04:07:05;;;;;;;54.00;34.50;;;;;;;4.66;100.00;102611.84;5113554;28;20031;-64
2022/01/29 04:09:30;;;;;;;49.93;33.40;;;;;;;4.67;100.00;102603.38;5113594;28;20379;-64
2022/01/29 04:11:56;;;;;;;51.10;33.40;;;;;;;4.67;100.00;102599.16;5113340;28;20085;-64
2022/01/29 04:14:21;;;;;;;55.67;34.08;;;;;;;4.70;100.00;102608.78;5095061;28;20454;-64
2022/01/29 04:16:47;;;;;;;48.30;31.27;;;;;;;4.70;100.00;102603.63;5113352;28;20407;-64
2022/01/29 04:19:12;;;;;;;46.07;30.83;;;;;;;4.74;100.00;102604.81;5111276;28;20088;-64
2022/01/29 04:21:41;;;;;;;48.30;29.93;;;;;;;4.77;100.00;102599.91;5095166;28;20110;-65
2022/01/29 04:24:07;;;;;;;44.43;30.60;;;;;;;4.80;100.00;102595.06;5095040;28;20486;-64
2022/01/29 04:26:34;;;;;;;43.17;28.97;;;;;;;4.81;100.00;102591.69;5113070;28;20023;-65
2022/01/29 04:29:03;;;;;;;49.63;29.00;;;;;;;4.84;100.00;102585.94;5113197;28;20046;-64
2022/01/29 04:31:36;;;;;;;47.53;29.87;;;;;;;4.86;100.00;102590.41;5113127;28;20031;-64
2022/01/29 04:34:03;;;;;;;47.40;29.97;;;;;;;4.89;100.00;102580.38;5113218;28;20061;-64
2022/01/29 04:36:28;;;;;;;44.77;29.83;;;;;;;4.94;100.00;102583.34;5112790;28;20128;-64
2022/01/29 04:38:53;;;;;;;40.90;28.40;;;;;;;4.94;100.00;102588.50;5112934;28;20432;-64
2022/01/29 04:41:21;;;;;;;41.37;29.57;;;;;;;4.96;100.00;102586.06;5112807;28;20122;-64
2022/01/29 04:43:47;;;;;;;41.45;28.90;;;;;;;4.97;100.00;102578.47;5113087;28;20027;-65
2022/01/29 04:46:12;;;;;;;42.93;29.73;;;;;;;4.97;100.00;102578.47;5112948;28;20133;-64
2022/01/29 04:48:37;;;;;;;45.05;30.45;;;;;;;4.98;100.00;102570.00;5092452;28;20528;-65
2022/01/29 04:51:02;;;;;;;47.58;30.48;;;;;;;5.01;100.00;102564.19;5112693;28;20108;-64
2022/01/29 04:53:28;;;;;;;45.25;30.10;;;;;;;5.02;100.00;102566.88;5112951;28;20459;-65
2022/01/29 04:55:53;;;;;;;45.28;30.58;;;;;;;5.04;100.00;102567.91;5112551;28;20031;-65
2022/01/29 04:58:18;;;;;;;48.17;31.80;;;;;;;5.04;100.00;102565.34;5110732;28;20455;-64
2022/01/29 05:00:44;;;;;;;49.42;31.60;;;;;;;5.07;100.00;102559.59;5093157;28;20549;-64
2022/01/29 05:03:12;;;;;;;50.85;31.63;;;;;;;5.11;100.00;102550.47;5112574;28;20103;-64
2022/01/29 05:05:38;;;;;;;50.55;32.08;;;;;;;5.11;100.00;102560.72;5112433;28;20020;-64
2022/01/29 05:08:04;;;;;;;47.00;31.33;;;;;;;5.11;100.00;102547.88;5112389;28;20019;-64
2022/01/29 05:10:30;;;;;;;48.60;33.60;;;;;;;5.12;100.00;102547.09;5112054;28;20023;-65
2022/01/29 05:13:07;;;;;;;54.83;33.88;;;;;;;5.14;100.00;102545.56;5112415;28;20379;-64
2022/01/29 05:15:44;;;;;;;54.42;34.40;;;;;;;5.17;100.00;102553.50;5112123;28;20023;-64
2022/01/29 05:29:09;;;;;;;53.35;34.90;;;;;;;5.23;100.00;102525.75;5112018;28;20096;-65
2022/01/29 05:31:35;;;;;;;59.83;34.73;;;;;;;5.26;100.00;102525.09;5111914;28;20035;-65
2022/01/29 05:34:01;;;;;;;53.60;35.93;;;;;;;5.25;100.00;102529.31;5111713;28;20027;-64
2022/01/29 05:36:26;;;;;;;54.73;35.60;;;;;;;5.27;100.00;102532.91;5111691;28;20058;-64
2022/01/29 05:38:52;;;;;;;56.97;35.25;;;;;;;5.29;100.00;102525.31;5111618;28;20084;-64
2022/01/29 05:41:17;;;;;;;58.40;35.83;;;;;;;5.29;100.00;102536.50;5111585;28;20051;-65
2022/01/29 05:43:43;;;;;;;57.13;35.63;;;;;;;5.34;100.00;102530.84;5111608;28;20437;-65
2022/01/29 05:46:10;;;;;;;57.47;37.67;;;;;;;5.36;100.00;102534.44;5111509;28;20059;-65
2022/01/29 05:48:35;;;;;;;57.30;37.63;;;;;;;5.35;100.00;102520.69;5097764;28;20036;-64
2022/01/29 05:51:01;;;;;;;61.63;36.73;;;;;;;5.38;100.00;102520.00;5091029;28;20031;-65
2022/01/29 05:53:26;;;;;;;55.83;36.28;;;;;;;5.39;100.00;102511.56;5090900;28;20541;-64
2022/01/29 05:55:51;;;;;;;53.40;37.20;;;;;;;5.40;100.00;102521.03;5090729;28;20467;-64
2022/01/29 05:58:17;;;;;;;53.85;37.25;;;;;;;5.41;100.00;102515.16;5090966;28;20031;-64
2022/01/29 06:00:42;;;;;;;58.60;37.45;;;;;;;5.42;100.00;102522.06;5090766;28;20047;-64
2022/01/29 06:03:09;;;;;;;53.97;34.83;;;;;;;5.44;100.00;102517.97;5091185;28;20530;-65
2022/01/29 06:05:34;;;;;;;58.80;37.72;;;;;;;5.47;100.00;102509.59;5090623;28;20074;-64
2022/01/29 06:08:00;;;;;;;57.83;37.28;;;;;;;5.49;100.00;102500.31;5090662;28;20464;-65
2022/01/29 06:10:26;;;;;;;60.90;36.43;;;;;;;5.49;100.00;102505.44;5072429;28;20197;-65
2022/01/29 06:12:57;;;;;;;59.38;37.60;;;;;;;5.49;100.00;102511.50;5090868;28;20016;-64
2022/01/29 06:15:22;;;;;;;53.97;36.58;;;;;;;5.51;100.00;102504.81;5090521;28;20028;-65
2022/01/29 06:17:48;;;;;;;59.03;36.13;;;;;;;5.53;100.00;102508.41;5095298;28;20036;-64
2022/01/29 06:20:13;;;;;;;56.07;36.50;;;;;;;5.52;100.00;102504.03;5110634;28;20031;-65
2022/01/29 06:22:41;;;;;;;52.85;36.90;;;;;;;5.55;100.00;102497.34;5110679;28;20479;-64
2022/01/29 06:25:07;;;;;;;56.00;36.70;;;;;;;5.58;100.00;102501.03;5110867;28;20535;-64
2022/01/29 06:27:32;;;;;;;54.77;36.23;;;;;;;5.60;100.00;102501.16;5110562;28;20102;-65
2022/01/29 06:29:57;;;;;;;56.13;37.10;;;;;;;5.61;100.00;102496.13;5110505;28;20397;-64
2022/01/29 06:32:23;;;;;;;55.75;37.13;;;;;;;5.59;100.00;102495.16;5110704;28;20459;-64
2022/01/29 06:34:48;;;;;;;56.35;36.50;;;;;;;5.62;100.00;102502.19;5110545;28;20035;-64
2022/01/29 06:37:13;;;;;;;56.67;37.47;;;;;;;5.62;100.00;102499.63;5110347;28;20055;-64
2022/01/29 06:39:39;;;;;;;56.63;37.53;;;;;;;5.64;100.00;102496.41;5092081;28;20088;-64
2022/01/29 06:42:04;;;;;;;56.65;36.72;;;;;;;5.67;100.00;102497.44;5110307;28;20479;-64
2022/01/29 06:44:29;;;;;;;50.97;34.65;;;;;;;5.66;100.00;102486.22;5092087;28;20027;-65
2022/01/29 06:46:55;;;;;;;54.30;37.80;;;;;;;5.68;100.00;102483.78;5109064;28;20357;-64
2022/01/29 06:49:20;;;;;;;52.28;36.35;;;;;;;5.69;100.00;102481.31;5090038;28;20599;-64
2022/01/29 06:51:45;;;;;;;50.67;36.47;;;;;;;5.70;100.00;102471.94;5089835;28;20024;-64
2022/01/29 06:54:11;;;;;;;55.58;36.88;;;;;;;5.72;100.00;102475.53;5089982;28;20103;-64
2022/01/29 06:56:36;;;;;;;52.58;36.10;;;;;;;5.72;100.00;102473.84;5090020;28;20055;-64
2022/01/29 06:59:01;;;;;;;53.65;37.25;;;;;;;5.74;100.00;102469.72;5089783;28;20032;-64
2022/01/29 07:01:27;;;;;;;51.55;35.58;;;;;;;5.76;100.00;102463.00;5089885;28;20051;-64
2022/01/29 07:03:52;;;;;;;51.40;35.92;;;;;;;5.76;100.00;102457.88;5089812;28;20035;-65
2022/01/29 07:06:17;;;;;;;50.53;36.13;;;;;;;5.79;100.00;102456.31;5089740;28;20093;-65
2022/01/29 07:08:42;;;;;;;47.85;35.15;;;;;;;5.80;100.00;102463.25;5089590;28;20418;-65
2022/01/29 07:11:08;;;;;;;51.50;35.58;;;;;;;5.83;100.00;102458.34;5089584;28;20027;-65
2022/01/29 07:13:34;;;;;;;49.97;35.17;;;;;;;5.85;100.00;102461.91;5089441;28;20591;-65
2022/01/29 07:16:00;;;;;;;46.28;33.85;;;;;;;5.87;100.00;102453.56;5089622;28;20035;-65
2022/01/29 07:18:25;;;;;;;48.95;35.33;;;;;;;5.88;100.00;102451.88;5090811;28;20028;-65
2022/01/29 07:20:51;;;;;;;48.20;34.30;;;;;;;5.90;100.00;102458.03;5096629;28;20167;-65
2022/01/29 07:23:16;;;;;;;50.33;36.20;;;;;;;5.95;100.00;102451.59;5109763;28;20507;-65
2022/01/29 07:25:41;;;;;;;47.20;34.95;;;;;;;5.98;100.00;102453.47;5113912;28;20456;-64
2022/01/29 07:28:06;;;;;;;45.65;34.38;;;;;;;6.01;100.00;102453.72;5114018;28;20026;-65
2022/01/29 07:30:32;;;;;;;49.97;35.67;;;;;;;6.00;100.00;102457.97;5113824;28;20054;-65
2022/01/29 07:32:57;;;;;;;48.72;34.72;;;;;;;6.01;100.00;102458.84;5095801;28;20240;-65
2022/01/29 07:35:23;;;;;;;45.88;33.58;;;;;;;6.03;100.00;102451.28;5109448;28;20411;-65
2022/01/29 07:37:48;;;;;;;51.63;35.28;;;;;;;6.05;100.00;102460.94;5109982;28;20075;-65
2022/01/29 07:40:13;;;;;;;46.03;34.35;;;;;;;6.06;100.00;102452.41;5107100;28;20138;-65
2022/01/29 07:42:39;;;;;;;47.15;35.22;;;;;;;6.07;100.00;102463.63;5113264;28;20034;-65
2022/01/29 07:45:05;;;;;;;47.75;34.20;;;;;;;6.08;100.00;102450.00;5114085;28;20012;-65
2022/01/29 07:47:30;;;;;;;48.42;36.03;;;;;;;6.08;100.00;102455.13;5110973;28;20471;-65
2022/01/29 07:49:56;;;;;;;48.15;35.55;;;;;;;6.09;100.00;102455.25;5112669;28;20019;-64
2022/01/29 07:52:21;;;;;;;50.38;36.33;;;;;;;6.11;100.00;102445.97;5115750;28;20026;-65
2022/01/29 07:54:46;;;;;;;45.08;34.75;;;;;;;6.12;100.00;102452.91;5115686;28;20024;-64
2022/01/29 07:57:12;;;;;;;49.13;34.38;;;;;;;6.16;100.00;102454.03;5115152;28;20035;-64
2022/01/29 07:59:37;;;;;;;46.08;34.03;;;;;;;6.18;100.00;102444.75;5112062;27;20061;-64
2022/01/29 08:02:03;;;;;;;50.22;34.92;;;;;;;6.19;100.00;102436.22;5114162;28;20098;-64
2022/01/29 08:04:28;;;;;;;47.55;32.55;;;;;;;6.21;100.00;102438.91;5115106;28;20028;-64
2022/01/29 08:06:53;;;;;;;47.63;35.22;;;;;;;6.24;100.00;102426.31;5096981;28;20589;-64
2022/01/29 08:09:19;;;;;;;48.05;35.13;;;;;;;6.26;100.00;102429.00;5115607;28;20035;-64
2022/01/29 08:11:44;;;;;;;52.13;35.67;;;;;;;6.29;100.00;102434.34;5115038;28;20022;-64
2022/01/29 08:14:10;;;;;;;47.28;34.97;;;;;;;6.32;100.00;102434.59;5115992;28;20023;-64
2022/01/29 08:16:35;;;;;;;49.90;35.13;;;;;;;6.34;100.00;102430.44;5115164;28;20049;-64
2022/01/29 08:19:00;;;;;;;47.53;33.72;;;;;;;6.38;100.00;102417.03;5113623;28;20032;-64
2022/01/29 08:21:26;;;;;;;49.42;36.10;;;;;;;6.43;100.00;102415.69;5115605;28;20011;-64
2022/01/29 08:23:51;;;;;;;46.20;34.95;;;;;;;6.47;100.00;102411.66;5116120;28;20020;-64
2022/01/29 08:26:18;;;;;;;46.75;34.05;;;;;;;6.49;100.00;102407.53;5115476;28;20105;-64
2022/01/29 08:28:43;;;;;;;48.47;34.88;;;;;;;6.52;100.00;102406.84;5097080;28;20036;-64
2022/01/29 08:31:09;;;;;;;44.97;33.60;;;;;;;6.56;100.00;102409.78;5115690;28;20032;-64
2022/01/29 08:33:34;;;;;;;43.08;34.15;;;;;;;6.59;100.00;102409.09;5115991;28;20030;-64
2022/01/29 08:35:59;;;;;;;42.20;32.05;;;;;;;6.61;100.00;102404.94;5111733;28;20496;-64
2022/01/29 08:38:26;;;;;;;39.20;32.65;;;;;;;6.65;100.00;102403.50;5112175;28;20066;-64
2022/01/29 08:40:53;;;;;;;39.63;33.30;;;;;;;6.69;100.00;102397.78;5094113;28;20076;-64
2022/01/29 08:43:19;;;;;;;40.03;33.30;;;;;;;6.76;100.00;102381.09;5112528;28;20387;-64
2022/01/29 08:45:44;;;;;;;37.47;32.35;;;;;;;6.77;100.00;102382.88;5111130;28;20019;-64
2022/01/29 08:48:10;;;;;;;37.92;31.17;;;;;;;6.79;100.00;102386.47;5092744;28;20467;-64
2022/01/29 08:50:35;;;;;;;37.17;32.03;;;;;;;6.82;100.00;102386.69;5092225;28;20016;-64
2022/01/29 08:53:00;;;;;;;36.55;30.67;;;;;;;6.84;100.00;102382.53;5112104;28;20020;-64
2022/01/29 08:55:26;;;;;;;35.58;31.58;;;;;;;6.88;100.00;102392.28;5093436;28;20472;-64
2022/01/29 08:57:51;;;;;;;37.13;31.85;;;;;;;6.91;100.00;102386.44;5111564;28;20375;-64
2022/01/29 09:00:17;;;;;;;37.72;31.35;;;;;;;6.94;100.00;102379.81;5112072;28;20020;-64
2022/01/29 09:02:42;;;;;;;33.55;30.02;;;;;;;6.97;100.00;102377.50;5112443;28;20024;-64
2022/01/29 09:05:10;;;;;;;33.83;29.80;;;;;;;7.01;100.00;102382.84;5111921;28;20050;-64
2022/01/29 09:07:35;;;;;;;34.65;30.80;;;;;;;7.02;100.00;102374.31;5093790;28;20016;-64
2022/01/29 09:10:01;;;;;;;32.42;28.95;;;;;;;7.04;100.00;102373.66;5101409;28;20020;-64
2022/01/29 09:12:26;;;;;;;32.72;28.80;;;;;;;7.07;100.00;102362.66;5091484;28;20550;-64
2022/01/29 09:14:52;;;;;;;33.10;29.52;;;;;;;7.08;100.00;102367.03;5103042;28;20024;-64
2022/01/29 09:17:17;;;;;;;34.50;28.95;;;;;;;7.09;100.00;102355.94;5112126;28;20031;-64
2022/01/29 09:19:42;;;;;;;31.55;27.17;;;;;;;7.12;100.00;102365.56;5112121;28;20024;-64
2022/01/29 09:22:08;;;;;;;30.45;27.20;;;;;;;7.16;100.00;102367.59;5112083;28;20069;-64
2022/01/29 09:24:33;;;;;;;33.20;28.98;;;;;;;7.19;100.00;102362.66;5111703;28;20032;-64
2022/01/29 09:26:59;;;;;;;28.90;25.80;;;;;;;7.24;100.00;102365.53;5089608;28;20023;-65
2022/01/29 09:29:25;;;;;;;31.00;27.08;;;;;;;7.26;100.00;102363.97;5111173;28;20356;-64
2022/01/29 09:31:51;;;;;;;33.95;27.33;;;;;;;7.28;100.00;102364.97;5111290;28;20023;-64
2022/01/29 09:34:16;;;;;;;30.10;24.85;;;;;;;7.32;100.00;102369.56;5111311;28;20098;-65
2022/01/29 09:36:42;;;;;;;27.48;24.50;;;;;;;7.38;100.00;102372.56;5111488;28;20051;-64
2022/01/29 09:39:07;;;;;;;26.00;23.25;;;;;;;7.40;100.00;102367.50;5093326;28;20495;-65
2022/01/29 09:41:36;;;;;;;26.20;23.60;;;;;;;7.44;100.00;102374.69;5111159;28;20082;-64
2022/01/29 09:44:02;;;;;;;27.10;23.83;;;;;;;7.46;100.00;102365.38;5109254;28;20023;-64
2022/01/29 09:46:30;;;;;;;24.25;21.75;;;;;;;7.49;100.00;102373.31;5110342;28;20387;-64
2022/01/29 09:48:56;;;;;;;24.13;21.15;;;;;;;7.48;100.00;102366.38;5092437;28;20020;-65
2022/01/29 09:51:21;;;;;;;25.10;22.60;;;;;;;7.45;100.00;102372.19;5111491;28;20031;-64
2022/01/29 09:53:47;;;;;;;25.67;22.52;;;;;;;7.52;100.00;102368.34;5088177;28;20016;-64
2022/01/29 09:56:14;;;;;;;25.08;21.73;;;;;;;7.54;100.00;102379.69;5090536;28;20028;-64
2022/01/29 09:58:40;;;;;;;24.05;21.40;;;;;;;7.58;100.00;102370.47;5072181;28;20031;-64
2022/01/29 10:01:06;;;;;;;25.05;22.38;;;;;;;7.60;100.00;102366.31;5090643;28;20032;-65
2022/01/29 10:03:31;;;;;;;24.65;22.17;;;;;;;7.59;100.00;102374.81;5090865;28;20074;-64
2022/01/29 10:05:58;;;;;;;24.35;21.98;;;;;;;7.60;100.00;102370.56;5090938;28;20422;-64
2022/01/29 10:08:24;;;;;;;24.00;21.55;;;;;;;7.61;100.00;102372.38;5104804;28;20023;-64
2022/01/29 10:10:52;;;;;;;24.60;22.08;;;;;;;7.62;100.00;102369.91;5110601;28;20023;-64
2022/01/29 10:13:32;;;;;;;23.83;21.38;;;;;;;7.65;100.00;102361.47;5110004;28;20055;-65
2022/01/29 10:16:11;;;;;;;25.10;22.57;;;;;;;7.68;100.00;102359.97;5110356;28;20105;-65
2022/01/29 10:18:38;;;;;;;23.55;21.25;;;;;;;7.69;100.00;102356.63;5109505;28;20285;-64
2022/01/29 10:21:12;;;;;;;23.80;21.15;;;;;;;7.71;100.00;102361.88;5107522;28;20042;-64
2022/01/29 10:23:38;;;;;;;24.88;22.30;;;;;;;7.74;100.00;102356.03;5109889;28;20051;-65
2022/01/29 10:26:05;;;;;;;23.73;21.40;;;;;;;7.79;100.00;102362.38;5096416;28;20119;-64
2022/01/29 10:28:31;;;;;;;23.77;21.52;;;;;;;7.83;100.00;102353.16;5092215;28;20024;-64
2022/01/29 10:31:07;;;;;;;23.83;21.40;;;;;;;7.85;100.00;102346.44;5110626;28;20027;-65
2022/01/29 10:33:42;;;;;;;24.38;21.88;;;;;;;7.88;100.00;102332.03;5111015;28;20510;-64
2022/01/29 10:36:14;;;;;;;24.33;21.75;;;;;;;7.90;100.00;102330.47;5109139;28;20074;-64
2022/01/29 10:38:40;;;;;;;24.35;20.85;;;;;;;7.98;100.00;102319.75;5110272;28;20390;-64
2022/01/29 10:41:31;;;;;;;23.05;20.85;;;;;;;8.03;100.00;102313.22;5110380;28;20111;-64
2022/01/29 10:44:00;;;;;;;22.55;20.38;;;;;;;8.07;100.00;102306.56;5098937;27;20522;-64
2022/01/29 10:46:27;;;;;;;22.05;19.85;;;;;;;8.08;100.00;102311.81;5102442;28;20023;-64
2022/01/29 10:48:53;;;;;;;20.95;18.95;;;;;;;8.15;100.00;102308.84;5091950;28;20019;-64
2022/01/29 10:51:18;;;;;;;21.35;19.25;;;;;;;8.17;100.00;102304.69;5110526;28;20081;-65
2022/01/29 10:53:43;;;;;;;20.63;18.63;;;;;;;8.21;100.00;102299.72;5091731;28;20023;-64
2022/01/29 10:56:09;;;;;;;19.13;17.33;;;;;;;8.23;100.00;102293.88;5097812;28;20031;-64
2022/01/29 10:58:42;;;;;;;18.58;16.73;;;;;;;8.26;100.00;102293.16;5070663;28;20020;-64
2022/01/29 11:01:17;;;;;;;18.67;16.90;;;;;;;8.27;100.00;102295.84;5089768;28;20034;-64
2022/01/29 11:03:43;;;;;;;18.27;16.52;;;;;;;8.30;100.00;102310.66;5089608;28;20111;-65
2022/01/29 11:06:12;;;;;;;17.25;15.63;;;;;;;8.34;100.00;102304.00;5090508;28;20030;-65
2022/01/29 11:08:39;;;;;;;15.52;14.20;;;;;;;8.36;100.00;102294.66;5091673;28;20048;-65
2022/01/29 11:11:05;;;;;;;16.17;14.68;;;;;;;8.40;100.00;102294.94;5109474;28;20028;-64
2022/01/29 11:13:32;;;;;;;16.05;14.52;;;;;;;8.46;100.00;102280.63;5091144;28;20027;-64
2022/01/29 11:15:58;;;;;;;14.15;12.82;;;;;;;8.47;100.00;102274.69;5109554;28;20069;-65
2022/01/29 11:18:27;;;;;;;14.80;13.25;;;;;;;8.49;100.00;102286.03;5109260;28;20011;-65